Latest Weather Observations for Banana Bank

IDQ60801

Issued at 6:05 am EST Tuesday 29 July 2014 (issued every 30 minutes, with the page automatically refreshed every 10 minutes)

About weather observations | Map of weather stations | Latest weather observations for QLD | Other Formats
Station Details ID: 040925 Name: BANANA BANK NORTH BEACON Lat: -27.53 Lon: 153.33 Height: 7.0 m
Data from the previous 72 hours. | See also: Recent months for locations in Queensland
Date/Time
EST
Temp
°C
App
Temp
°C
Dew
Point
Rel
Hum
%
Delta-T
°C
Wind Press
QNH
hPa
Press
MSL
hPa
Rain
since 9 am
mm
Dir
 
Spd
km/h
Gust
km/h
Spd
kts
Gust
kts
29/06:00am - - - - - W 6 7 3 4 - - -
29/05:30am - - - - - NW 7 9 4 5 - - -
29/05:00am - - - - - NW 9 13 5 7 - - -
29/04:30am - - - - - NW 6 7 3 4 - - -
29/04:00am - - - - - WNW 7 9 4 5 - - -
29/03:30am - - - - - W 4 7 2 4 - - -
29/03:00am - - - - - W 6 7 3 4 - - -
29/02:30am - - - - - W 7 9 4 5 - - -
29/02:00am - - - - - WNW 11 13 6 7 - - -
29/01:30am - - - - - WNW 11 15 6 8 - - -
29/01:00am - - - - - NW 11 13 6 7 - - -
29/12:30am - - - - - NNW 7 9 4 5 - - -
29/12:00am - - - - - NNW 9 9 5 5 - - -
 
Date/Time
EST
Temp
°C
App
Temp
°C
Dew
Point
Rel
Hum
%
Delta-T
°C
Wind Press
QNH
hPa
Press
MSL
hPa
Rain
since 9 am
mm
Dir
 
Spd
km/h
Gust
km/h
Spd
kts
Gust
kts
28/11:30pm - - - - - NW 6 7 3 4 - - -
28/11:00pm - - - - - NW 7 9 4 5 - - -
28/10:30pm - - - - - NW 11 11 6 6 - - -
28/10:00pm - - - - - NW 11 13 6 7 - - -
28/09:30pm - - - - - NW 11 13 6 7 - - -
28/09:00pm - - - - - NW 9 13 5 7 - - -
28/08:30pm - - - - - NNW 9 11 5 6 - - -
28/08:00pm - - - - - NNW 11 11 6 6 - - -
28/07:30pm - - - - - NNW 11 13 6 7 - - -
28/07:00pm - - - - - NW 7 9 4 5 - - -
28/06:30pm - - - - - N 9 11 5 6 - - -
28/06:00pm - - - - - NNE 13 17 7 9 - - -
28/05:30pm - - - - - NNE 17 20 9 11 - - -
28/05:00pm - - - - - NNE 19 20 10 11 - - -
28/04:30pm - - - - - NNE 20 22 11 12 - - -
28/04:00pm - - - - - N 19 22 10 12 - - -
28/03:30pm - - - - - N 17 20 9 11 - - -
28/03:00pm - - - - - N 17 20 9 11 - - -
28/02:30pm - - - - - N 13 15 7 8 - - -
28/02:00pm - - - - - N 17 19 9 10 - - -
28/01:30pm - - - - - N 13 13 7 7 - - -
28/01:00pm - - - - - N 9 9 5 5 - - -
28/12:30pm - - - - - N 11 13 6 7 - - -
28/12:00pm - - - - - NNE 7 9 4 5 - - -
28/11:30am - - - - - NE 6 6 3 3 - - -
28/11:00am - - - - - ENE 6 7 3 4 - - -
28/10:30am - - - - - ESE 4 6 2 3 - - -
28/10:00am - - - - - ESE 4 4 2 2 - - -
28/09:30am - - - - - S 2 4 1 2 - - -
28/09:00am - - - - - S 4 4 2 2 - - -
28/08:30am - - - - - SW 4 6 2 3 - - -
28/08:00am - - - - - SW 6 7 3 4 - - -
28/07:30am - - - - - SSW 6 7 3 4 - - -
28/07:00am - - - - - SW 4 6 2 3 - - -
28/06:30am - - - - - W 4 6 2 3 - - -
28/06:00am - - - - - W 6 7 3 4 - - -
28/05:30am - - - - - SW 7 7 4 4 - - -
28/05:00am - - - - - SW 6 7 3 4 - - -
28/04:30am - - - - - SW 6 7 3 4 - - -
28/04:00am - - - - - S 4 6 2 3 - - -
28/03:30am - - - - - S 7 9 4 5 - - -
28/03:00am - - - - - S 6 7 3 4 - - -
28/02:30am - - - - - SSE 6 7 3 4 - - -
28/02:00am - - - - - SSE 6 7 3 4 - - -
28/01:30am - - - - - S 4 7 2 4 - - -
28/01:00am - - - - - SW 4 6 2 3 - - -
28/12:30am - - - - - S 6 7 3 4 - - -
28/12:00am - - - - - S 9 11 5 6 - - -
 
Date/Time
EST
Temp
°C
App
Temp
°C
Dew
Point
Rel
Hum
%
Delta-T
°C
Wind Press
QNH
hPa
Press
MSL
hPa
Rain
since 9 am
mm
Dir
 
Spd
km/h
Gust
km/h
Spd
kts
Gust
kts
27/11:30pm - - - - - S 11 13 6 7 - - -
27/11:00pm - - - - - S 11 15 6 8 - - -
27/10:30pm - - - - - SSW 11 13 6 7 - - -
27/10:00pm - - - - - SSW 9 9 5 5 - - -
27/09:30pm - - - - - SW 4 4 2 2 - - -
27/09:00pm - - - - - CALM 0 0 0 0 - - -
27/08:30pm - - - - - CALM 0 0 0 0 - - -
27/08:00pm - - - - - CALM 0 0 0 0 - - -
27/07:30pm - - - - - SE 7 9 4 5 - - -
27/07:00pm - - - - - ESE 7 7 4 4 - - -
27/06:30pm - - - - - E 6 7 3 4 - - -
27/06:00pm - - - - - SE 9 11 5 6 - - -
27/05:30pm - - - - - ESE 13 15 7 8 - - -
27/05:00pm - - - - - ESE 17 19 9 10 - - -
27/04:30pm - - - - - SE 15 17 8 9 - - -
27/04:00pm - - - - - ESE 13 15 7 8 - - -
27/03:30pm - - - - - SE 13 15 7 8 - - -
27/03:00pm - - - - - SE 13 15 7 8 - - -
27/02:30pm - - - - - SE 13 15 7 8 - - -
27/02:00pm - - - - - SE 15 17 8 9 - - -
27/01:30pm - - - - - E 7 9 4 5 - - -
27/01:00pm - - - - - ESE 6 6 3 3 - - -
27/12:30pm - - - - - SW 6 7 3 4 - - -
27/12:00pm - - - - - SW 11 15 6 8 - - -
27/11:30am - - - - - SW 17 20 9 11 - - -
27/11:00am - - - - - SW 19 24 10 13 - - -
27/10:30am - - - - - SW 17 20 9 11 - - -
27/10:00am - - - - - SSW 9 13 5 7 - - -
27/09:30am - - - - - WSW 13 17 7 9 - - -
27/09:00am - - - - - WSW 11 19 6 10 - - -
27/08:30am - - - - - WSW 9 13 5 7 - - -
27/08:00am - - - - - WSW 11 15 6 8 - - -
27/07:30am - - - - - WSW 13 17 7 9 - - -
27/07:00am - - - - - WSW 9 15 5 8 - - -
27/06:30am - - - - - SW 9 13 5 7 - - -
27/06:00am - - - - - WSW 11 15 6 8 - - -
27/05:30am - - - - - WSW 11 19 6 10 - - -
27/05:00am - - - - - W 9 13 5 7 - - -
27/04:30am - - - - - WSW 9 13 5 7 - - -
27/04:00am - - - - - WSW 9 13 5 7 - - -
27/03:30am - - - - - WSW 9 15 5 8 - - -
27/03:00am - - - - - WSW 7 13 4 7 - - -
27/02:30am - - - - - W 7 9 4 5 - - -
27/02:00am - - - - - WSW 7 13 4 7 - - -
27/01:30am - - - - - W 11 13 6 7 - - -
27/01:00am - - - - - W 4 9 2 5 - - -
27/12:30am - - - - - SSW 4 7 2 4 - - -
27/12:00am - - - - - S 6 7 3 4 - - -
 
Date/Time
EST
Temp
°C
App
Temp
°C
Dew
Point
Rel
Hum
%
Delta-T
°C
Wind Press
QNH
hPa
Press
MSL
hPa
Rain
since 9 am
mm
Dir
 
Spd
km/h
Gust
km/h
Spd
kts
Gust
kts
26/11:30pm - - - - - SW 6 7 3 4 - - -
26/11:00pm - - - - - SW 4 7 2 4 - - -
26/10:30pm - - - - - WNW 9 11 5 6 - - -
26/10:00pm - - - - - NW 9 9 5 5 - - -
26/09:30pm - - - - - NW 9 11 5 6 - - -
26/09:00pm - - - - - NW 13 15 7 8 - - -
26/08:30pm - - - - - NW 13 15 7 8 - - -
26/08:00pm - - - - - NW 13 15 7 8 - - -
26/07:30pm - - - - - NW 7 13 4 7 - - -
26/07:00pm - - - - - N 7 9 4 5 - - -
26/06:30pm - - - - - N 11 19 6 10 - - -
26/06:00pm - - - - - WSW 7 13 4 7 - - -
26/05:30pm - - - - - WNW 6 7 3 4 - - -
26/05:00pm - - - - - WNW 2 4 1 2 - - -
26/04:30pm - - - - - N 9 11 5 6 - - -
26/04:00pm - - - - - N 9 11 5 6 - - -
26/03:30pm - - - - - N 7 9 4 5 - - -
26/03:00pm - - - - - N 11 13 6 7 - - -
26/02:30pm - - - - - N 7 9 4 5 - - -
26/02:00pm - - - - - NE 6 7 3 4 - - -
26/01:30pm - - - - - NNE 7 9 4 5 - - -
26/01:00pm - - - - - NNE 6 7 3 4 - - -
26/12:30pm - - - - - NE 7 11 4 6 - - -
26/12:00pm - - - - - E 4 6 2 3 - - -
26/11:30am - - - - - NE 7 7 4 4 - - -
26/11:00am - - - - - NE 6 6 3 3 - - -
26/10:30am - - - - - CALM 0 0 0 0 - - -
26/10:00am - - - - - CALM 0 0 0 0 - - -
26/09:30am - - - - - CALM 0 0 0 0 - - -
26/09:00am - - - - - CALM 0 2 0 1 - - -
26/08:30am - - - - - CALM 0 4 0 2 - - -
26/08:00am - - - - - CALM 0 0 0 0 - - -
26/07:30am - - - - - CALM 0 2 0 1 - - -
26/07:00am - - - - - SSW 4 4 2 2 - - -
26/06:30am - - - - - CALM 0 2 0 1 - - -

Other Formats:

Comma delimited format used in spreadsheet applications
http://www.bom.gov.au/fwo/IDQ60801/IDQ60801.94591.axf

JavaScript Object Notation format (JSON) in row-major order
http://www.bom.gov.au/fwo/IDQ60801/IDQ60801.94591.json